Time;durP1;ratioP1;P1;durP2;ratioP2;P2;SDS_P1;SDS_P2;PMS_P1;PMS_P2;Temp;Humidity;BMP_temperature;BMP_pressure;BME280_temperature;BME280_humidity;BME280_pressure;Samples;Min_cycle;Max_cycle;Signal;HPM_P1;HPM_P2
2023/07/02 00:01:07;;;;;;;6.75;2.33;;;;;;;17.26;100.00;96204.59;4979585;28;20089;-68
2023/07/02 00:03:32;;;;;;;3.38;2.15;;;;;;;17.35;100.00;96202.06;4984225;28;20042;-67
2023/07/02 00:05:58;;;;;;;5.60;2.47;;;;;;;17.34;100.00;96206.00;4984300;28;20047;-67
2023/07/02 00:08:23;;;;;;;6.05;2.58;;;;;;;17.26;100.00;96213.66;4980025;28;20049;-67
2023/07/02 00:10:49;;;;;;;5.60;2.53;;;;;;;17.19;100.00;96199.97;4984130;28;20446;-67
2023/07/02 00:13:14;;;;;;;5.15;2.38;;;;;;;17.13;100.00;96202.44;4979710;28;20054;-65
2023/07/02 00:15:40;;;;;;;4.90;2.55;;;;;;;17.28;100.00;96202.19;4966775;28;20631;-67
2023/07/02 00:18:05;;;;;;;5.80;2.65;;;;;;;17.27;100.00;96208.91;4979177;28;20511;-67
2023/07/02 00:20:37;;;;;;;4.80;2.63;;;;;;;17.14;100.00;96203.19;4966422;28;20071;-67
2023/07/02 00:23:07;;;;;;;5.00;2.60;;;;;;;17.05;100.00;96201.00;4982018;28;20534;-63
2023/07/02 00:25:32;;;;;;;3.90;2.50;;;;;;;16.92;100.00;96209.09;4984807;28;20046;-67
2023/07/02 00:27:58;;;;;;;6.57;3.10;;;;;;;16.95;100.00;96219.34;4985014;28;20037;-66
2023/07/02 00:30:23;;;;;;;5.22;2.80;;;;;;;16.86;100.00;96210.78;5002903;28;20516;-65
2023/07/02 00:32:49;;;;;;;4.10;2.70;;;;;;;16.87;100.00;96217.09;5016904;28;20073;-67
2023/07/02 00:35:14;;;;;;;6.25;3.13;;;;;;;16.78;100.00;96212.06;4998676;28;20056;-66
2023/07/02 00:37:39;;;;;;;5.45;3.00;;;;;;;16.79;100.00;96217.19;5004200;28;20057;-65
2023/07/02 00:40:06;;;;;;;4.57;2.78;;;;;;;16.72;100.00;96225.59;4981025;28;20522;-64
2023/07/02 00:42:31;;;;;;;6.40;2.58;;;;;;;16.78;100.00;96214.84;5001331;28;20435;-64
2023/07/02 00:45:02;;;;;;;4.60;3.03;;;;;;;16.71;100.00;96214.94;5002687;28;20053;-65
2023/07/02 00:47:32;;;;;;;5.50;3.35;;;;;;;16.79;100.00;96219.94;4969323;28;20049;-66
2023/07/02 00:49:59;;;;;;;5.30;3.15;;;;;;;16.80;100.00;96217.97;4971579;28;20511;-67
2023/07/02 00:52:25;;;;;;;6.90;3.08;;;;;;;16.76;100.00;96218.03;4958973;28;20141;-66
2023/07/02 00:54:51;;;;;;;3.47;2.90;;;;;;;16.70;100.00;96213.41;4963694;28;20047;-66
2023/07/02 00:57:17;;;;;;;5.25;3.30;;;;;;;16.60;100.00;96207.63;4962495;28;20042;-64
2023/07/02 00:59:42;;;;;;;8.15;5.63;;;;;;;16.61;100.00;96206.41;4980132;28;20051;-66
2023/07/02 01:02:07;;;;;;;3.92;2.78;;;;;;;16.35;100.00;96207.19;4965474;28;20043;-67
2023/07/02 01:04:33;;;;;;;3.50;2.42;;;;;;;16.37;100.00;96207.56;4964887;28;20076;-68
2023/07/02 01:06:58;;;;;;;4.32;2.60;;;;;;;16.28;100.00;96210.84;4964203;28;20035;-67
2023/07/02 01:09:27;;;;;;;2.70;2.05;;;;;;;16.30;100.00;96204.91;4959824;28;20475;-67
2023/07/02 01:12:21;;;;;;;3.60;2.50;;;;;;;16.30;100.00;96207.66;4964328;28;20723;-68
2023/07/02 01:14:52;;;;;;;3.30;2.40;;;;;;;16.29;100.00;96208.84;4962377;28;20042;-66
2023/07/02 01:17:19;;;;;;;4.30;2.40;;;;;;;16.35;100.00;96198.88;4961724;28;20046;-67
2023/07/02 01:19:58;;;;;;;3.10;1.75;;;;;;;16.31;100.00;96196.19;4964658;28;20050;-68
2023/07/02 01:22:26;;;;;;;3.10;2.20;;;;;;;16.30;100.00;96200.16;4958777;28;20707;-68
2023/07/02 01:24:52;;;;;;;4.38;2.22;;;;;;;16.31;100.00;96189.88;4963813;28;20439;-67
2023/07/02 01:27:18;;;;;;;3.65;2.17;;;;;;;16.29;100.00;96192.28;4959531;28;20042;-67
2023/07/02 01:29:46;;;;;;;2.97;2.30;;;;;;;16.19;100.00;96180.19;4995762;28;20128;-67
2023/07/02 01:32:15;;;;;;;3.72;2.25;;;;;;;16.13;100.00;96181.84;4972727;28;20415;-66
2023/07/02 01:34:41;;;;;;;3.00;2.08;;;;;;;16.07;100.00;96181.53;4964513;28;20134;-68
2023/07/02 01:37:07;;;;;;;3.28;2.10;;;;;;;16.25;100.00;96190.34;4958838;28;20858;-67
2023/07/02 01:39:33;;;;;;;3.10;2.10;;;;;;;16.24;100.00;96188.78;4963553;28;20043;-67
2023/07/02 01:42:09;;;;;;;3.67;2.38;;;;;;;16.28;100.00;96194.28;4967333;28;20049;-67
2023/07/02 01:44:35;;;;;;;3.95;1.85;;;;;;;16.34;100.00;96192.59;4982554;28;20046;-67
2023/07/02 01:47:01;;;;;;;2.97;2.00;;;;;;;16.44;100.00;96191.66;4982930;28;20043;-68
2023/07/02 01:49:26;;;;;;;3.75;1.90;;;;;;;16.46;100.00;96188.47;4971120;28;20038;-68
2023/07/02 01:51:52;;;;;;;2.35;2.05;;;;;;;16.42;100.00;96185.78;4963447;28;20093;-67
2023/07/02 01:54:23;;;;;;;3.28;2.00;;;;;;;16.50;100.00;96186.44;4958359;28;20050;-66
2023/07/02 01:56:48;;;;;;;2.33;1.77;;;;;;;16.44;100.00;96194.41;4962719;28;20445;-66
2023/07/02 01:59:14;;;;;;;2.92;2.22;;;;;;;16.47;100.00;96194.78;4956872;28;20046;-66
2023/07/02 02:01:40;;;;;;;2.78;2.03;;;;;;;16.42;100.00;96191.28;4964218;28;20046;-67
2023/07/02 02:04:09;;;;;;;2.92;1.88;;;;;;;16.56;100.00;96204.09;4957381;28;20098;-67
2023/07/02 02:06:36;;;;;;;5.93;1.70;;;;;;;16.64;100.00;96196.50;4963503;28;20046;-68
2023/07/02 02:09:04;;;;;;;2.88;1.98;;;;;;;16.80;100.00;96202.16;4963552;28;20074;-70
2023/07/02 02:11:30;;;;;;;2.83;1.75;;;;;;;16.82;100.00;96201.75;4961559;28;20130;-69
2023/07/02 02:13:55;;;;;;;3.58;2.00;;;;;;;16.65;100.00;96206.34;4962830;28;20130;-68
2023/07/02 02:16:21;;;;;;;4.05;2.05;;;;;;;16.57;100.00;96202.91;4956520;28;20061;-70
2023/07/02 02:18:46;;;;;;;3.00;1.90;;;;;;;16.53;100.00;96206.91;4963073;28;20485;-68
2023/07/02 02:21:11;;;;;;;2.88;1.90;;;;;;;16.57;100.00;96202.91;4947948;28;20520;-71
2023/07/02 02:23:37;;;;;;;2.10;1.55;;;;;;;16.58;100.00;96206.44;4965912;28;20058;-70
2023/07/02 02:26:02;;;;;;;2.83;1.77;;;;;;;16.67;100.00;96206.69;4960729;28;20061;-68
2023/07/02 02:28:28;;;;;;;3.63;2.22;;;;;;;16.72;100.00;96211.75;4978549;28;20045;-69
2023/07/02 02:30:53;;;;;;;2.97;1.98;;;;;;;16.70;100.00;96214.16;4993222;28;20069;-70
2023/07/02 02:33:18;;;;;;;3.10;2.28;;;;;;;16.75;100.00;96212.94;4983772;28;20491;-70
2023/07/02 02:35:45;;;;;;;3.15;1.55;;;;;;;16.88;100.00;96216.69;4982049;28;20211;-71
2023/07/02 02:38:10;;;;;;;3.70;2.05;;;;;;;16.99;100.00;96214.50;4966134;28;20058;-69
2023/07/02 02:40:36;;;;;;;3.08;1.95;;;;;;;16.85;100.00;96211.97;4963866;28;20043;-70
2023/07/02 02:43:01;;;;;;;8.45;2.35;;;;;;;16.80;100.00;96207.69;4982852;28;20039;-68
2023/07/02 02:45:27;;;;;;;8.38;2.28;;;;;;;16.85;100.00;96206.44;5000065;28;20399;-70
2023/07/02 02:47:52;;;;;;;3.10;2.13;;;;;;;16.83;100.00;96208.84;4990717;28;20042;-71
2023/07/02 02:50:18;;;;;;;3.33;2.38;;;;;;;16.74;100.00;96203.06;4964506;28;20043;-69
2023/07/02 02:52:43;;;;;;;3.70;2.45;;;;;;;16.76;100.00;96197.88;4981612;28;20093;-70
2023/07/02 02:55:10;;;;;;;4.13;2.97;;;;;;;16.71;100.00;96207.44;4977424;28;20035;-70
2023/07/02 02:57:36;;;;;;;4.00;2.70;;;;;;;16.81;100.00;96214.78;4981974;28;20137;-67
2023/07/02 03:00:02;;;;;;;5.50;2.80;;;;;;;16.68;100.00;96208.28;4981753;28;20157;-67
2023/07/02 03:02:28;;;;;;;6.07;3.50;;;;;;;16.67;100.00;96206.69;4961789;28;20073;-67
2023/07/02 03:04:53;;;;;;;4.40;3.10;;;;;;;16.74;100.00;96209.34;4981363;28;20405;-70
2023/07/02 03:07:19;;;;;;;4.35;2.85;;;;;;;16.70;100.00;96208.63;4959489;28;20050;-69
2023/07/02 03:09:44;;;;;;;6.07;3.63;;;;;;;16.77;100.00;96216.03;4981421;28;20538;-68
2023/07/02 03:12:10;;;;;;;5.25;3.30;;;;;;;16.64;100.00;96215.84;4976101;28;20492;-70
2023/07/02 03:14:35;;;;;;;5.82;3.38;;;;;;;16.64;100.00;96218.63;4982020;28;20058;-68
2023/07/02 03:17:01;;;;;;;4.63;3.40;;;;;;;16.73;100.00;96218.09;4980596;28;20038;-70
2023/07/02 03:19:26;;;;;;;5.15;3.45;;;;;;;16.77;100.00;96222.34;4976700;28;20526;-68
2023/07/02 03:21:52;;;;;;;5.53;3.65;;;;;;;16.76;100.00;96220.00;4966372;28;20046;-70
2023/07/02 03:24:17;;;;;;;7.15;4.07;;;;;;;16.62;100.00;96223.78;4980119;28;20050;-70
2023/07/02 03:26:43;;;;;;;5.13;3.65;;;;;;;16.59;100.00;96225.38;4987922;28;20050;-70
2023/07/02 03:29:09;;;;;;;6.15;4.45;;;;;;;16.52;100.00;96231.03;4988668;28;20042;-69
2023/07/02 03:31:35;;;;;;;6.40;4.15;;;;;;;16.49;100.00;96228.31;4995529;28;20399;-68
2023/07/02 03:34:06;;;;;;;5.85;4.13;;;;;;;16.63;100.00;96228.09;5005781;28;20042;-71
2023/07/02 03:36:31;;;;;;;8.95;4.50;;;;;;;16.62;100.00;96229.31;5004443;28;20041;-70
2023/07/02 03:38:57;;;;;;;7.70;4.38;;;;;;;16.59;100.00;96227.38;5003203;28;20078;-71
2023/07/02 03:41:23;;;;;;;5.28;4.35;;;;;;;16.62;100.00;96234.84;4999633;28;20444;-72
2023/07/02 03:43:48;;;;;;;6.20;4.65;;;;;;;16.60;100.00;96237.22;5003775;28;20046;-72
2023/07/02 03:46:14;;;;;;;6.85;4.80;;;;;;;16.53;100.00;96238.13;4999116;28;20046;-71
2023/07/02 03:48:39;;;;;;;8.25;5.22;;;;;;;16.53;100.00;96231.81;5003938;28;20069;-67
2023/07/02 03:51:05;;;;;;;7.82;4.80;;;;;;;16.49;100.00;96240.16;4981979;28;20116;-67
2023/07/02 03:53:30;;;;;;;9.73;4.40;;;;;;;16.58;100.00;96236.88;4985745;28;20181;-71
2023/07/02 03:55:56;;;;;;;7.28;4.85;;;;;;;16.53;100.00;96234.56;4984295;28;20129;-70
2023/07/02 03:58:21;;;;;;;6.93;5.05;;;;;;;16.49;100.00;96247.66;4979826;28;20721;-69
2023/07/02 04:00:49;;;;;;;7.35;4.80;;;;;;;16.54;100.00;96247.97;4985001;28;20557;-71
2023/07/02 04:03:16;;;;;;;9.48;5.43;;;;;;;16.52;100.00;96249.59;4978506;28;20035;-70
2023/07/02 04:05:42;;;;;;;8.55;5.43;;;;;;;16.45;100.00;96250.47;4983912;28;20037;-70
2023/07/02 04:08:07;;;;;;;7.03;4.95;;;;;;;16.41;100.00;96258.03;4979184;28;20046;-70
2023/07/02 04:10:33;;;;;;;8.82;5.40;;;;;;;16.51;100.00;96270.94;4983408;28;20051;-70
2023/07/02 04:12:58;;;;;;;7.35;4.88;;;;;;;16.54;100.00;96266.53;4984407;28;20121;-68
2023/07/02 04:15:26;;;;;;;8.13;5.57;;;;;;;16.46;100.00;96257.59;4956525;28;20042;-68
2023/07/02 04:17:52;;;;;;;9.23;5.60;;;;;;;16.51;100.00;96262.66;4986566;28;20058;-68
2023/07/02 04:20:18;;;;;;;7.00;5.43;;;;;;;16.57;100.00;96260.97;4982270;28;20042;-70
2023/07/02 04:22:45;;;;;;;7.32;5.18;;;;;;;16.58;100.00;96256.22;4984513;28;20070;-70
2023/07/02 04:25:14;;;;;;;8.15;5.82;;;;;;;16.55;100.00;96257.84;4980124;28;20069;-70
2023/07/02 04:27:40;;;;;;;8.98;5.30;;;;;;;16.60;100.00;96259.34;4985429;28;20092;-72
2023/07/02 04:30:08;;;;;;;8.30;5.13;;;;;;;16.58;100.00;96257.03;4987488;28;20041;-71
2023/07/02 04:32:33;;;;;;;8.02;5.43;;;;;;;16.49;100.00;96258.72;5000082;28;20495;-69
2023/07/02 04:34:58;;;;;;;9.95;5.30;;;;;;;16.43;100.00;96263.94;5003788;28;20045;-70
2023/07/02 04:37:24;;;;;;;10.63;5.32;;;;;;;16.30;100.00;96265.69;4980848;28;20591;-70
2023/07/02 04:39:49;;;;;;;10.40;5.60;;;;;;;16.31;100.00;96256.19;5003493;28;20053;-69
2023/07/02 04:42:14;;;;;;;12.73;5.57;;;;;;;16.21;100.00;96266.97;4998433;28;20376;-70
2023/07/02 04:44:43;;;;;;;11.25;5.25;;;;;;;16.19;100.00;96271.38;5018343;28;20085;-69
2023/07/02 04:47:08;;;;;;;8.95;5.57;;;;;;;16.20;100.00;96272.91;5015622;28;20052;-70
2023/07/02 04:49:34;;;;;;;9.63;5.07;;;;;;;16.21;100.00;96272.50;4996336;28;20388;-70
2023/07/02 04:51:59;;;;;;;9.95;5.70;;;;;;;16.37;100.00;96271.13;4983907;28;20427;-66
2023/07/02 04:54:24;;;;;;;9.23;6.10;;;;;;;16.41;100.00;96275.41;4978801;28;20048;-70
2023/07/02 04:56:50;;;;;;;10.65;5.50;;;;;;;16.40;100.00;96286.88;4983903;28;20046;-69
2023/07/02 04:59:16;;;;;;;8.05;5.60;;;;;;;16.46;100.00;96287.19;4977434;28;20406;-68
2023/07/02 05:01:41;;;;;;;10.38;5.47;;;;;;;16.39;100.00;96286.09;4983396;28;20054;-70
2023/07/02 05:04:09;;;;;;;10.70;6.00;;;;;;;16.47;100.00;96289.53;4977346;28;20523;-66
2023/07/02 05:06:35;;;;;;;10.13;5.85;;;;;;;16.51;100.00;96289.50;4966772;28;20038;-68
2023/07/02 05:09:00;;;;;;;11.27;5.88;;;;;;;16.43;100.00;96289.59;4983271;28;20038;-69
2023/07/02 05:11:25;;;;;;;14.10;7.38;;;;;;;16.47;100.00;96295.06;4979631;28;20137;-70
2023/07/02 05:13:51;;;;;;;12.25;6.78;;;;;;;16.46;100.00;96299.03;4983054;28;20038;-70
2023/07/02 05:16:16;;;;;;;11.77;6.93;;;;;;;16.51;100.00;96297.78;4977629;28;20038;-68
2023/07/02 05:18:42;;;;;;;11.98;7.28;;;;;;;16.35;100.00;96296.41;4983922;28;20046;-71
2023/07/02 05:21:07;;;;;;;15.13;8.18;;;;;;;16.32;100.00;96302.00;4977890;28;20574;-71
2023/07/02 05:23:32;;;;;;;12.50;7.07;;;;;;;16.39;100.00;96302.66;4983775;28;20053;-70
2023/07/02 05:25:58;;;;;;;18.15;8.95;;;;;;;16.34;100.00;96307.88;4983653;28;20469;-71
2023/07/02 05:28:24;;;;;;;16.42;8.77;;;;;;;16.40;100.00;96309.78;4979450;28;20962;-72
2023/07/02 05:30:50;;;;;;;15.50;8.55;;;;;;;16.33;100.00;96312.63;4994809;28;20510;-68
2023/07/02 05:33:15;;;;;;;15.88;8.48;;;;;;;16.44;100.00;96316.03;4998275;28;20038;-69
2023/07/02 05:35:41;;;;;;;20.52;9.38;;;;;;;16.50;100.00;96326.63;5002655;28;20046;-69
2023/07/02 05:38:06;;;;;;;20.20;9.25;;;;;;;16.49;100.00;96325.06;4995771;28;20642;-64
2023/07/02 05:40:32;;;;;;;17.23;8.65;;;;;;;16.56;100.00;96320.22;5001303;28;20491;-69
2023/07/02 05:42:57;;;;;;;16.52;8.93;;;;;;;16.52;100.00;96322.25;5009203;28;20419;-68
2023/07/02 05:45:23;;;;;;;19.60;9.77;;;;;;;16.67;100.00;96330.34;4964126;28;20757;-69
2023/07/02 05:47:49;;;;;;;20.63;9.77;;;;;;;16.70;100.00;96321.22;5002633;28;20081;-69
2023/07/02 05:50:15;;;;;;;21.77;10.15;;;;;;;16.75;100.00;96329.84;4982896;28;20110;-69
2023/07/02 05:52:40;;;;;;;15.93;10.25;;;;;;;16.63;100.00;96327.63;4989721;28;20058;-69
2023/07/02 05:55:10;;;;;;;18.10;10.75;;;;;;;16.63;100.00;96333.16;4977419;28;20136;-66
2023/07/02 05:57:36;;;;;;;;;;;;;;;16.72;100.00;96336.19;4965111;28;20042;-71
2023/07/02 06:00:01;;;;;;;22.27;10.52;;;;;;;16.59;100.00;96329.66;4982899;28;20001;-69
2023/07/02 06:02:26;;;;;;;20.35;10.75;;;;;;;16.67;100.00;96342.19;4977546;28;20050;-69
2023/07/02 06:04:52;;;;;;;17.88;10.38;;;;;;;16.68;100.00;96340.22;4981827;28;20058;-68
2023/07/02 06:07:17;;;;;;;19.20;10.50;;;;;;;16.65;100.00;96349.34;4976172;28;20582;-69
2023/07/02 06:09:42;;;;;;;20.42;10.15;;;;;;;16.58;100.00;96347.44;4964538;28;20049;-69
2023/07/02 06:12:08;;;;;;;16.33;9.10;;;;;;;16.69;100.00;96345.34;4975919;28;20038;-65
2023/07/02 06:14:33;;;;;;;20.15;10.32;;;;;;;16.59;100.00;96351.78;4986990;28;20039;-70
2023/07/02 06:17:00;;;;;;;23.48;9.40;;;;;;;16.85;100.00;96363.31;4986338;28;20101;-69
2023/07/02 06:19:26;;;;;;;19.60;9.95;;;;;;;16.85;100.00;96360.56;4977355;28;20452;-70
2023/07/02 06:21:51;;;;;;;19.80;9.45;;;;;;;16.86;100.00;96362.13;4982612;28;20038;-69
2023/07/02 06:24:17;;;;;;;18.65;9.27;;;;;;;16.89;100.00;96364.84;4976100;28;20042;-70
2023/07/02 06:26:42;;;;;;;24.17;11.05;;;;;;;16.85;100.00;96363.31;4984587;28;20057;-71
2023/07/02 06:29:07;;;;;;;23.17;10.80;;;;;;;16.83;100.00;96369.28;4983574;28;20368;-71
2023/07/02 06:31:33;;;;;;;19.83;10.48;;;;;;;17.16;100.00;96364.84;4994517;28;20112;-70
2023/07/02 06:33:58;;;;;;;18.77;10.18;;;;;;;17.09;100.00;96370.50;5001507;28;20081;-67
2023/07/02 06:36:23;;;;;;;22.90;10.85;;;;;;;17.23;100.00;96371.47;4997746;28;20215;-68
2023/07/02 06:38:49;;;;;;;29.25;10.85;;;;;;;17.39;100.00;96363.31;5002864;28;20053;-69
2023/07/02 06:41:14;;;;;;;22.23;11.13;;;;;;;17.41;100.00;96377.50;5003363;28;20050;-71
2023/07/02 06:43:42;;;;;;;21.05;10.95;;;;;;;17.49;100.00;96376.22;5012291;28;20480;-69
2023/07/02 06:46:10;;;;;;;26.13;11.20;;;;;;;17.74;100.00;96380.56;5006092;28;20046;-70
2023/07/02 06:48:35;;;;;;;23.75;10.80;;;;;;;17.80;100.00;96386.41;4999431;28;20037;-67
2023/07/02 06:51:01;;;;;;;15.75;10.02;;;;;;;17.98;100.00;96386.88;4981315;28;20057;-70
2023/07/02 06:53:26;;;;;;;18.17;10.40;;;;;;;18.22;100.00;96378.53;4975191;28;20105;-71
2023/07/02 06:55:51;;;;;;;23.08;10.88;;;;;;;18.21;100.00;96386.06;4983107;28;20038;-68
2023/07/02 06:58:17;;;;;;;20.20;11.05;;;;;;;18.07;100.00;96394.66;4983269;28;20515;-71
2023/07/02 07:00:42;;;;;;;22.90;11.20;;;;;;;18.18;100.00;96388.91;4984980;28;20388;-70
2023/07/02 07:03:07;;;;;;;23.42;11.02;;;;;;;18.40;100.00;96392.06;4965950;28;20200;-68
2023/07/02 07:05:33;;;;;;;19.77;11.23;;;;;;;18.42;100.00;96395.97;4969161;28;20050;-70
2023/07/02 07:08:00;;;;;;;21.00;11.52;;;;;;;18.28;100.00;96394.25;4985108;28;20512;-71
2023/07/02 07:10:25;;;;;;;23.48;11.48;;;;;;;18.40;100.00;96394.81;4962838;28;20126;-70
2023/07/02 07:12:51;;;;;;;25.20;12.18;;;;;;;18.16;100.00;96400.41;4985110;28;20059;-70
2023/07/02 07:15:16;;;;;;;21.00;11.60;;;;;;;18.17;100.00;96399.22;4978671;28;20045;-71
2023/07/02 07:17:42;;;;;;;24.77;12.02;;;;;;;18.17;100.00;96406.72;4985019;28;20190;-68
2023/07/02 07:20:08;;;;;;;23.13;12.65;;;;;;;18.07;100.00;96402.97;4975183;28;20046;-69
2023/07/02 07:22:33;;;;;;;22.20;12.27;;;;;;;18.10;100.00;96407.66;4985279;28;20104;-70
2023/07/02 07:24:59;;;;;;;21.65;12.55;;;;;;;18.12;100.00;96416.34;4968271;28;20138;-70
2023/07/02 07:27:24;;;;;;;21.60;12.07;;;;;;;18.09;100.00;96417.19;4962521;28;20404;-70
2023/07/02 07:29:49;;;;;;;26.38;12.65;;;;;;;17.90;100.00;96402.84;4991965;28;20395;-70
2023/07/02 07:32:16;;;;;;;20.92;12.18;;;;;;;18.01;100.00;96407.44;4993741;28;20138;-69
2023/07/02 07:34:42;;;;;;;24.40;12.75;;;;;;;18.01;100.00;96413.75;4991487;28;20065;-69
2023/07/02 07:37:07;;;;;;;23.67;11.82;;;;;;;18.24;100.00;96410.19;4980585;28;20496;-68
2023/07/02 07:39:32;;;;;;;22.92;11.85;;;;;;;18.08;100.00;96421.94;4966865;28;20078;-71
2023/07/02 07:41:58;;;;;;;27.80;13.18;;;;;;;17.95;100.00;96418.19;4952732;28;20344;-66
2023/07/02 07:44:23;;;;;;;22.73;12.27;;;;;;;17.98;100.00;96411.03;4979446;28;20554;-69
2023/07/02 07:46:48;;;;;;;23.80;12.68;;;;;;;18.21;100.00;96415.78;4983666;28;20038;-69
2023/07/02 07:49:14;;;;;;;25.80;12.57;;;;;;;18.33;100.00;96426.25;4979559;28;20046;-69
2023/07/02 07:51:39;;;;;;;20.50;11.98;;;;;;;18.33;100.00;96423.50;4984263;28;20377;-68
2023/07/02 07:54:05;;;;;;;20.77;11.85;;;;;;;18.54;100.00;96416.72;4980444;28;20039;-65
2023/07/02 07:56:30;;;;;;;22.67;12.05;;;;;;;18.70;100.00;96418.78;4981933;28;20045;-70
2023/07/02 07:58:56;;;;;;;28.00;14.10;;;;;;;18.51;100.00;96423.13;4985668;28;20396;-71
2023/07/02 08:01:21;;;;;;;27.77;14.02;;;;;;;18.26;100.00;96420.84;4979175;28;20628;-69
2023/07/02 08:03:46;;;;;;;25.63;13.52;;;;;;;18.26;100.00;96423.63;4985459;28;20046;-70
2023/07/02 08:06:12;;;;;;;27.33;13.93;;;;;;;18.28;100.00;96416.44;4981601;28;20046;-69
2023/07/02 08:08:37;;;;;;;29.67;14.45;;;;;;;18.25;100.00;96431.13;4984172;28;20058;-70
2023/07/02 08:11:02;;;;;;;32.78;16.85;;;;;;;18.37;100.00;96428.97;4992100;28;20045;-62
2023/07/02 08:13:28;;;;;;;34.38;15.95;;;;;;;18.48;100.00;96416.44;4978528;28;20050;-66
2023/07/02 08:15:53;;;;;;;33.13;16.60;;;;;;;18.33;100.00;96415.94;4985381;28;20042;-68
2023/07/02 08:18:19;;;;;;;41.85;20.05;;;;;;;18.40;96.37;96415.03;4977072;28;20583;-68
2023/07/02 08:20:44;;;;;;;39.38;22.40;;;;;;;18.77;95.74;96429.75;4983928;28;20108;-68
2023/07/02 08:23:09;;;;;;;35.13;18.60;;;;;;;19.10;94.44;96432.66;4981076;28;20500;-70
2023/07/02 08:25:35;;;;;;;34.45;18.25;;;;;;;19.18;91.81;96430.53;4991357;28;20129;-69
2023/07/02 08:28:00;;;;;;;36.60;17.80;;;;;;;19.37;91.36;96432.44;4987805;28;20053;-67
2023/07/02 08:30:26;;;;;;;34.35;16.98;;;;;;;19.61;88.82;96435.09;4988284;28;20041;-68
2023/07/02 08:32:54;;;;;;;39.53;17.90;;;;;;;19.62;88.88;96434.66;4995414;28;20041;-69
2023/07/02 08:35:19;;;;;;;36.53;18.80;;;;;;;20.04;85.92;96434.06;5001177;28;20045;-67
2023/07/02 08:37:44;;;;;;;36.92;18.05;;;;;;;20.10;81.98;96434.34;5015841;28;20037;-66
2023/07/02 08:40:19;;;;;;;36.88;19.02;;;;;;;20.06;82.90;96442.78;4992685;28;20046;-69
2023/07/02 08:42:48;;;;;;;38.47;18.35;;;;;;;20.01;83.01;96443.28;4975983;28;20046;-71
2023/07/02 08:45:17;;;;;;;37.55;19.67;;;;;;;20.18;80.27;96447.59;4971174;28;20050;-70
2023/07/02 08:47:44;;;;;;;32.85;18.23;;;;;;;20.04;78.63;96447.97;4987867;28;20050;-69
2023/07/02 08:50:10;;;;;;;38.30;19.65;;;;;;;19.96;82.91;96446.59;4971516;28;20372;-69
2023/07/02 08:52:35;;;;;;;37.10;19.70;;;;;;;19.92;81.34;96448.69;4973982;28;20042;-69
2023/07/02 08:55:00;;;;;;;36.80;20.02;;;;;;;19.98;79.46;96455.28;5011103;28;20048;-68
2023/07/02 08:57:26;;;;;;;43.17;21.02;;;;;;;19.42;82.26;96448.59;4995492;28;20523;-71
2023/07/02 08:59:51;;;;;;;43.17;21.30;;;;;;;19.48;81.24;96455.22;4988495;28;20038;-69
2023/07/02 09:02:17;;;;;;;41.67;20.98;;;;;;;19.21;82.41;96449.88;4981181;28;20046;-70
2023/07/02 09:04:42;;;;;;;57.95;32.22;;;;;;;19.33;83.07;96455.97;4987103;28;20050;-70
2023/07/02 09:07:09;;;;;;;44.78;23.95;;;;;;;19.61;82.91;96460.88;4979653;28;20038;-70
2023/07/02 09:09:49;;;;;;;37.65;18.40;;;;;;;19.56;80.78;96452.28;4982985;28;20042;-71
2023/07/02 09:12:28;;;;;;;41.00;20.58;;;;;;;19.69;80.97;96455.94;4978126;28;20038;-71
2023/07/02 09:15:06;;;;;;;33.97;19.40;;;;;;;20.04;80.55;96456.31;4982941;28;20120;-71
2023/07/02 09:17:40;;;;;;;39.60;20.33;;;;;;;19.94;78.85;96454.59;4982237;28;20040;-70
2023/07/02 09:20:10;;;;;;;35.15;19.55;;;;;;;19.81;80.28;96455.28;4977527;28;20141;-68
2023/07/02 09:22:36;;;;;;;39.33;21.00;;;;;;;19.92;80.55;96455.03;4982385;28;20479;-71
2023/07/02 09:25:02;;;;;;;38.60;20.60;;;;;;;20.29;78.73;96449.31;4982699;28;20046;-69
2023/07/02 09:27:36;;;;;;;39.40;20.30;;;;;;;20.36;77.47;96449.91;4979220;28;20046;-70
2023/07/02 09:30:10;;;;;;;42.53;21.67;;;;;;;20.33;76.95;96455.56;4981913;28;20552;-64
2023/07/02 09:32:35;;;;;;;37.45;20.30;;;;;;;19.99;77.69;96454.06;4972435;28;20046;-70
2023/07/02 09:35:01;;;;;;;43.00;20.85;;;;;;;20.03;77.13;96454.75;5002296;28;20044;-68
2023/07/02 09:37:27;;;;;;;41.00;20.90;;;;;;;20.25;77.39;96449.41;4997755;28;20123;-69
2023/07/02 09:39:54;;;;;;;45.03;21.95;;;;;;;20.93;73.06;96453.16;5002053;28;20046;-71
2023/07/02 09:42:21;;;;;;;43.08;23.08;;;;;;;20.79;73.42;96450.78;4989534;28;20447;-71
2023/07/02 09:44:47;;;;;;;42.00;21.50;;;;;;;21.25;70.81;96451.47;4983734;28;20142;-72
2023/07/02 09:47:14;;;;;;;39.80;22.33;;;;;;;21.50;69.46;96445.16;4980196;28;20448;-72
2023/07/02 09:49:52;;;;;;;37.95;21.52;;;;;;;22.07;65.28;96450.13;4983672;28;20039;-71
2023/07/02 09:52:18;;;;;;;39.35;21.25;;;;;;;21.79;66.68;96446.25;4977876;28;20490;-69
2023/07/02 09:54:44;;;;;;;42.85;23.42;;;;;;;21.70;66.42;96449.72;4982992;28;20042;-70
2023/07/02 09:57:10;;;;;;;43.83;22.75;;;;;;;21.61;66.65;96446.81;4978382;28;20588;-70
2023/07/02 09:59:36;;;;;;;41.97;22.17;;;;;;;21.68;67.89;96443.78;4983621;28;20042;-71
2023/07/02 10:02:01;;;;;;;39.17;21.42;;;;;;;22.06;65.55;96451.34;4982842;28;20126;-71
2023/07/02 10:04:27;;;;;;;38.33;22.25;;;;;;;22.36;64.84;96455.53;4978001;28;20065;-71
2023/07/02 10:06:55;;;;;;;39.55;22.33;;;;;;;22.81;63.23;96453.56;4981778;28;20053;-69
2023/07/02 10:09:33;;;;;;;43.08;23.75;;;;;;;22.61;61.28;96448.31;4976910;28;20046;-71
2023/07/02 10:11:59;;;;;;;44.30;22.98;;;;;;;23.60;58.81;96450.66;4982593;28;20043;-71
2023/07/02 10:14:24;;;;;;;41.92;21.55;;;;;;;24.15;56.63;96445.25;4978214;28;20120;-68
2023/07/02 10:16:50;;;;;;;43.90;23.13;;;;;;;24.66;54.51;96449.50;4982002;28;20559;-69
2023/07/02 10:19:16;;;;;;;40.67;23.80;;;;;;;24.95;53.87;96440.63;4977066;28;20057;-70
2023/07/02 10:21:41;;;;;;;39.08;21.40;;;;;;;24.83;54.25;96452.78;4982085;28;20488;-69
2023/07/02 10:24:14;;;;;;;40.90;22.05;;;;;;;24.48;53.90;96446.69;4959677;28;20065;-69
2023/07/02 10:26:57;;;;;;;44.97;23.02;;;;;;;23.64;55.79;96449.28;4981884;28;20038;-68
2023/07/02 10:29:26;;;;;;;38.35;21.60;;;;;;;23.51;55.68;96445.00;4976580;28;20062;-69
2023/07/02 10:31:56;;;;;;;44.47;22.30;;;;;;;23.19;57.33;96447.81;4994044;28;20448;-68
2023/07/02 10:34:32;;;;;;;43.75;22.00;;;;;;;22.87;58.20;96441.38;4979358;28;21065;-69
2023/07/02 10:36:58;;;;;;;36.70;20.92;;;;;;;23.01;58.64;96448.47;5006095;28;20056;-69
2023/07/02 10:39:23;;;;;;;35.92;18.70;;;;;;;23.30;58.21;96436.25;5000192;28;20041;-69
2023/07/02 10:41:49;;;;;;;37.08;21.50;;;;;;;23.29;58.39;96448.63;5005735;28;20033;-69
2023/07/02 10:44:15;;;;;;;43.80;21.15;;;;;;;23.79;58.45;96452.28;5000808;28;20521;-70
2023/07/02 10:46:47;;;;;;;38.22;19.92;;;;;;;24.28;55.35;96450.69;5005638;28;20514;-70
2023/07/02 10:49:17;;;;;;;37.22;19.80;;;;;;;23.90;56.87;96443.47;4995399;28;20085;-70
2023/07/02 10:51:42;;;;;;;;;;;;;;;23.41;56.16;96439.38;4985510;28;20050;-70
2023/07/02 10:54:08;;;;;;;34.25;19.48;;;;;;;23.33;57.64;96437.31;4980187;28;19969;-69
2023/07/02 10:56:35;;;;;;;35.80;19.02;;;;;;;23.53;56.81;96448.13;4985961;28;20101;-70
2023/07/02 10:59:00;;;;;;;32.92;20.17;;;;;;;22.82;58.54;96444.75;4985706;28;20039;-69
2023/07/02 11:01:31;;;;;;;36.75;19.73;;;;;;;23.19;58.17;96439.44;4966085;28;20050;-69
2023/07/02 11:04:06;;;;;;;38.65;20.92;;;;;;;23.37;57.35;96437.97;4989414;28;20046;-68
2023/07/02 11:06:33;;;;;;;37.80;20.50;;;;;;;23.67;56.46;96442.75;4996485;28;20480;-70
2023/07/02 11:08:59;;;;;;;39.72;20.60;;;;;;;23.92;54.95;96429.03;5005379;28;20054;-70
2023/07/02 11:11:25;;;;;;;37.25;19.35;;;;;;;24.39;55.35;96430.66;4982920;28;20077;-70
2023/07/02 11:13:52;;;;;;;37.67;19.90;;;;;;;24.70;54.46;96441.72;4990799;28;20062;-69
2023/07/02 11:16:18;;;;;;;37.17;19.52;;;;;;;24.37;54.84;96433.16;4983136;28;20046;-72